Time;durP1;ratioP1;P1;durP2;ratioP2;P2;SDS_P1;SDS_P2;PMS_P1;PMS_P2;Temp;Humidity;BMP_temperature;BMP_pressure;BME280_temperature;BME280_humidity;BME280_pressure;Samples;Min_cycle;Max_cycle;Signal;HPM_P1;HPM_P2
2023/07/19 00:00:43;;;;;;;16.67;8.80;;;;;;;;;;4994661;28;20029;-49
2023/07/19 00:03:09;;;;;;;20.30;9.45;;;;;;;;;;4995524;28;20050;-48
2023/07/19 00:05:34;;;;;;;20.90;9.63;;;;;;;;;;4995120;28;20519;-51
2023/07/19 00:08:02;;;;;;;18.90;9.32;;;;;;;;;;4992544;28;20110;-51
2023/07/19 00:10:28;;;;;;;23.58;9.85;;;;;;;;;;4996126;28;20546;-46
2023/07/19 00:12:53;;;;;;;18.83;9.00;;;;;;;;;;4997180;28;20077;-49
2023/07/19 00:15:19;;;;;;;15.85;8.45;;;;;;;;;;4995591;28;20051;-49
2023/07/19 00:17:44;;;;;;;20.63;8.95;;;;;;;;;;4978152;28;20058;-53
2023/07/19 00:20:11;;;;;;;18.15;9.05;;;;;;;;;;4969387;28;20031;-49
2023/07/19 00:22:37;;;;;;;19.40;9.52;;;;;;;;;;4974687;28;20035;-47
2023/07/19 00:25:03;;;;;;;24.17;9.48;;;;;;;;;;4974026;28;20025;-49
2023/07/19 00:27:28;;;;;;;17.05;8.50;;;;;;;;;;4977305;28;20125;-52
2023/07/19 00:29:53;;;;;;;21.45;9.45;;;;;;;;;;4999344;28;20109;-49
2023/07/19 00:32:19;;;;;;;19.58;9.00;;;;;;;;;;4993926;28;20109;-50
2023/07/19 00:34:45;;;;;;;19.17;8.82;;;;;;;;;;4997591;28;20067;-50
2023/07/19 00:37:11;;;;;;;20.83;8.95;;;;;;;;;;4995238;28;20568;-52
2023/07/19 00:39:36;;;;;;;19.75;8.32;;;;;;;;;;4996051;28;20077;-49
2023/07/19 00:42:03;;;;;;;20.70;9.02;;;;;;;;;;4998852;28;20038;-48
2023/07/19 00:44:28;;;;;;;16.95;9.05;;;;;;;;;;4994647;28;20069;-51
2023/07/19 00:46:54;;;;;;;20.17;8.65;;;;;;;;;;4993539;28;20038;-48
2023/07/19 00:49:19;;;;;;;14.63;9.25;;;;;;;;;;4994712;28;20174;-47
2023/07/19 00:51:45;;;;;;;14.52;8.55;;;;;;;;;;4995185;28;20044;-51
2023/07/19 00:54:11;;;;;;;20.83;9.10;;;;;;;;;;4997476;28;20042;-50
2023/07/19 00:56:37;;;;;;;19.02;9.23;;;;;;;;;;4977261;28;20105;-51
2023/07/19 00:59:03;;;;;;;20.67;9.15;;;;;;;;;;4995734;28;20030;-48
2023/07/19 01:01:28;;;;;;;23.02;9.18;;;;;;;;;;4996779;28;20027;-49
2023/07/19 01:03:54;;;;;;;20.02;8.95;;;;;;;;;;4991096;28;20559;-48
2023/07/19 01:06:20;;;;;;;26.85;10.48;;;;;;;;;;4996532;28;20030;-51
2023/07/19 01:08:46;;;;;;;25.85;9.65;;;;;;;;;;4996396;28;20039;-49
2023/07/19 01:11:12;;;;;;;16.38;9.35;;;;;;;;;;4998880;28;20033;-46
2023/07/19 01:13:38;;;;;;;25.95;9.45;;;;;;;;;;4994820;28;20405;-46
2023/07/19 01:16:03;;;;;;;21.38;9.48;;;;;;;;;;4993109;28;20601;-48
2023/07/19 01:18:29;;;;;;;18.55;9.00;;;;;;;;;;4995287;28;20035;-50
2023/07/19 01:20:54;;;;;;;24.63;9.70;;;;;;;;;;4997941;28;20034;-49
2023/07/19 01:23:20;;;;;;;16.80;8.98;;;;;;;;;;4998046;28;20049;-49
2023/07/19 01:25:45;;;;;;;22.75;9.35;;;;;;;;;;4987435;28;20038;-51
2023/07/19 01:28:11;;;;;;;18.73;9.27;;;;;;;;;;4990795;28;20035;-52
2023/07/19 01:30:36;;;;;;;21.52;9.52;;;;;;;;;;4991268;28;20062;-50
2023/07/19 01:33:01;;;;;;;21.75;8.85;;;;;;;;;;4989789;28;20050;-50
2023/07/19 01:35:28;;;;;;;19.58;9.27;;;;;;;;;;4995932;28;20050;-51
2023/07/19 01:37:53;;;;;;;24.48;9.95;;;;;;;;;;4985004;28;20038;-47
2023/07/19 01:40:19;;;;;;;21.13;9.32;;;;;;;;;;4980416;28;20038;-48
2023/07/19 01:42:44;;;;;;;18.35;9.45;;;;;;;;;;4990082;28;20050;-49
2023/07/19 01:45:10;;;;;;;22.73;9.85;;;;;;;;;;4993086;28;20022;-51
2023/07/19 01:47:35;;;;;;;19.17;9.05;;;;;;;;;;4988069;28;20135;-48
2023/07/19 01:50:01;;;;;;;19.23;8.77;;;;;;;;;;4979386;28;20033;-50
2023/07/19 01:52:26;;;;;;;25.38;9.07;;;;;;;;;;4994521;28;20022;-49
2023/07/19 01:54:52;;;;;;;18.27;8.77;;;;;;;;;;4988394;28;20037;-48
2023/07/19 01:57:17;;;;;;;25.85;9.38;;;;;;;;;;4993111;28;20168;-49
2023/07/19 01:59:43;;;;;;;21.45;9.32;;;;;;;;;;4994290;28;20030;-51
2023/07/19 02:02:08;;;;;;;23.30;9.25;;;;;;;;;;4997739;28;20109;-51
2023/07/19 02:04:34;;;;;;;17.58;8.60;;;;;;;;;;4995783;28;20085;-52
2023/07/19 02:06:59;;;;;;;22.80;9.02;;;;;;;;;;4989819;28;20034;-51
2023/07/19 02:09:25;;;;;;;23.13;8.55;;;;;;;;;;4987169;28;20104;-46
2023/07/19 02:11:50;;;;;;;19.40;9.75;;;;;;;;;;4983948;28;20060;-49
2023/07/19 02:14:15;;;;;;;18.75;8.50;;;;;;;;;;4994058;28;20050;-48
2023/07/19 02:16:41;;;;;;;20.90;8.77;;;;;;;;;;4989652;28;20042;-50
2023/07/19 02:19:07;;;;;;;20.75;8.38;;;;;;;;;;4994412;28;20484;-51
2023/07/19 02:21:33;;;;;;;17.25;8.40;;;;;;;;;;4995047;28;20786;-51
2023/07/19 02:23:58;;;;;;;16.15;9.13;;;;;;;;;;4991540;28;20039;-49
2023/07/19 02:26:25;;;;;;;30.65;9.30;;;;;;;;;;4992941;28;20026;-48
2023/07/19 02:28:50;;;;;;;19.67;8.70;;;;;;;;;;4981969;28;20126;-48
2023/07/19 02:31:16;;;;;;;26.77;10.30;;;;;;;;;;4990015;28;20057;-53
2023/07/19 02:33:41;;;;;;;29.88;9.57;;;;;;;;;;4994254;28;20065;-50
2023/07/19 02:36:09;;;;;;;22.58;9.30;;;;;;;;;;4991950;28;20082;-52
2023/07/19 02:38:35;;;;;;;21.42;9.15;;;;;;;;;;4990303;28;20042;-53
2023/07/19 02:41:01;;;;;;;21.63;9.05;;;;;;;;;;4993943;28;20073;-50
2023/07/19 02:43:27;;;;;;;22.52;9.82;;;;;;;;;;4973496;28;20042;-49
2023/07/19 02:45:53;;;;;;;24.65;9.35;;;;;;;;;;4993238;28;20381;-47
2023/07/19 02:48:19;;;;;;;27.00;9.95;;;;;;;;;;4988444;28;20042;-47
2023/07/19 02:50:46;;;;;;;19.40;8.55;;;;;;;;;;4993234;28;20035;-49
2023/07/19 02:53:11;;;;;;;24.65;9.02;;;;;;;;;;4996278;28;20055;-48
2023/07/19 02:55:37;;;;;;;17.73;9.77;;;;;;;;;;4994773;28;20038;-46
2023/07/19 02:58:02;;;;;;;19.67;8.95;;;;;;;;;;4991801;28;20042;-50
2023/07/19 03:00:28;;;;;;;24.95;9.90;;;;;;;;;;4991038;28;20476;-54
2023/07/19 03:02:53;;;;;;;25.10;9.50;;;;;;;;;;4993915;28;20653;-51
2023/07/19 03:05:23;;;;;;;27.60;11.63;;;;;;;;;;4991928;28;20030;-48
2023/07/19 03:07:49;;;;;;;22.92;9.82;;;;;;;;;;4988225;28;20039;-51
2023/07/19 03:10:15;;;;;;;24.02;10.63;;;;;;;;;;4962305;28;20473;-46
2023/07/19 03:12:40;;;;;;;25.77;10.75;;;;;;;;;;4993629;28;20037;-49
2023/07/19 03:15:07;;;;;;;25.65;10.30;;;;;;;;;;4992322;28;20034;-48
2023/07/19 03:17:32;;;;;;;19.10;9.57;;;;;;;;;;4994626;28;20086;-48
2023/07/19 03:19:58;;;;;;;20.15;9.80;;;;;;;;;;4989873;28;20480;-50
2023/07/19 03:22:23;;;;;;;21.67;10.25;;;;;;;;;;4993390;28;20621;-51
2023/07/19 03:24:48;;;;;;;24.25;9.93;;;;;;;;;;4993837;28;20037;-51
2023/07/19 03:27:14;;;;;;;22.98;9.88;;;;;;;;;;4987383;28;20048;-48
2023/07/19 03:29:39;;;;;;;33.83;10.63;;;;;;;;;;4994689;28;20117;-48
2023/07/19 03:32:05;;;;;;;19.42;9.55;;;;;;;;;;4991481;28;20093;-47
2023/07/19 03:34:31;;;;;;;19.00;9.73;;;;;;;;;;4995282;28;20540;-46
2023/07/19 03:36:56;;;;;;;20.17;9.57;;;;;;;;;;4988585;28;20053;-47
2023/07/19 03:39:21;;;;;;;15.45;8.93;;;;;;;;;;4992893;28;20035;-47
2023/07/19 03:41:47;;;;;;;22.73;10.13;;;;;;;;;;4995884;28;20431;-47
2023/07/19 03:44:12;;;;;;;21.90;9.40;;;;;;;;;;4990749;28;20118;-47
2023/07/19 03:46:38;;;;;;;23.27;8.82;;;;;;;;;;4986995;28;20619;-51
2023/07/19 03:49:04;;;;;;;27.13;10.10;;;;;;;;;;4986519;28;20033;-47
2023/07/19 03:51:30;;;;;;;19.75;9.30;;;;;;;;;;4985896;28;20038;-52
2023/07/19 03:53:55;;;;;;;21.35;10.15;;;;;;;;;;4990788;28;20050;-49
2023/07/19 03:56:20;;;;;;;19.42;9.45;;;;;;;;;;4985241;28;20034;-48
2023/07/19 03:58:48;;;;;;;19.10;8.93;;;;;;;;;;4988348;28;20042;-48
2023/07/19 04:01:14;;;;;;;25.88;10.00;;;;;;;;;;4992628;28;20026;-50
2023/07/19 04:03:43;;;;;;;27.80;9.52;;;;;;;;;;4993020;28;20463;-51
2023/07/19 04:06:09;;;;;;;24.60;10.13;;;;;;;;;;4989088;28;20034;-47
2023/07/19 04:08:34;;;;;;;24.63;10.00;;;;;;;;;;4991116;28;20092;-48
2023/07/19 04:11:00;;;;;;;22.55;10.05;;;;;;;;;;4987027;28;20089;-49
2023/07/19 04:13:28;;;;;;;28.83;9.82;;;;;;;;;;4984680;28;20042;-52
2023/07/19 04:15:54;;;;;;;24.08;9.43;;;;;;;;;;4988541;28;20105;-50
2023/07/19 04:18:19;;;;;;;14.02;9.23;;;;;;;;;;4973557;28;20126;-50
2023/07/19 04:20:45;;;;;;;22.17;10.32;;;;;;;;;;4973656;28;20039;-53
2023/07/19 04:23:10;;;;;;;23.90;9.85;;;;;;;;;;4958864;28;20042;-49
2023/07/19 04:25:36;;;;;;;24.15;10.10;;;;;;;;;;4965665;28;20031;-52
2023/07/19 04:28:01;;;;;;;19.00;9.95;;;;;;;;;;4968280;28;20485;-51
2023/07/19 04:30:27;;;;;;;18.27;9.40;;;;;;;;;;4970272;28;20026;-51
2023/07/19 04:32:55;;;;;;;14.50;9.13;;;;;;;;;;4973076;28;20094;-53
2023/07/19 04:35:22;;;;;;;19.33;9.23;;;;;;;;;;4971515;28;20086;-48
2023/07/19 04:37:48;;;;;;;17.35;9.38;;;;;;;;;;4970516;28;20557;-51
2023/07/19 04:40:14;;;;;;;18.27;9.80;;;;;;;;;;4993841;28;20031;-50
2023/07/19 04:42:39;;;;;;;16.50;8.38;;;;;;;;;;4974730;28;20053;-51
2023/07/19 04:45:05;;;;;;;18.73;8.63;;;;;;;;;;4966994;28;20049;-51
2023/07/19 04:47:30;;;;;;;15.98;9.43;;;;;;;;;;4961104;28;20042;-52
2023/07/19 04:49:56;;;;;;;21.15;9.40;;;;;;;;;;4963173;28;20070;-52
2023/07/19 04:52:21;;;;;;;17.63;9.35;;;;;;;;;;4967656;28;20045;-47
2023/07/19 04:54:48;;;;;;;26.05;10.02;;;;;;;;;;4971292;28;20034;-51
2023/07/19 04:57:14;;;;;;;23.38;10.07;;;;;;;;;;4971636;28;20155;-48
2023/07/19 04:59:40;;;;;;;26.65;9.52;;;;;;;;;;4969388;28;20034;-47
2023/07/19 05:02:06;;;;;;;27.00;9.68;;;;;;;;;;4964494;28;20031;-52
2023/07/19 05:04:32;;;;;;;22.30;10.23;;;;;;;;;;4962831;28;20075;-48
2023/07/19 05:06:57;;;;;;;22.48;9.75;;;;;;;;;;4972818;28;20030;-49
2023/07/19 05:09:22;;;;;;;25.80;8.70;;;;;;;;;;4993079;28;20396;-53
2023/07/19 05:11:48;;;;;;;23.10;9.27;;;;;;;;;;4998090;28;20388;-47
2023/07/19 05:14:13;;;;;;;21.83;9.00;;;;;;;;;;4987161;28;20515;-49
2023/07/19 05:16:39;;;;;;;10.63;8.10;;;;;;;;;;4996866;28;20026;-50
2023/07/19 05:19:06;;;;;;;18.65;7.80;;;;;;;;;;4975710;28;20046;-52
2023/07/19 05:21:31;;;;;;;12.82;7.28;;;;;;;;;;4973004;28;20102;-52
2023/07/19 05:23:56;;;;;;;14.20;7.25;;;;;;;;;;4968719;28;20121;-51
2023/07/19 05:26:24;;;;;;;24.33;8.60;;;;;;;;;;4965266;28;20103;-52
2023/07/19 05:28:49;;;;;;;14.55;7.05;;;;;;;;;;4964533;28;20528;-54
2023/07/19 05:31:15;;;;;;;21.42;6.70;;;;;;;;;;4972807;28;20027;-53
2023/07/19 05:33:40;;;;;;;20.40;7.55;;;;;;;;;;4964451;28;20027;-49
2023/07/19 05:36:06;;;;;;;17.45;7.18;;;;;;;;;;4972914;28;20047;-49
2023/07/19 05:38:32;;;;;;;19.50;7.35;;;;;;;;;;4972091;28;20034;-51
2023/07/19 05:41:04;;;;;;;14.80;7.40;;;;;;;;;;4972273;28;20038;-51
2023/07/19 05:43:31;;;;;;;17.58;7.00;;;;;;;;;;4967558;28;20761;-52
2023/07/19 05:46:07;;;;;;;21.00;7.38;;;;;;;;;;4966461;28;20093;-50
2023/07/19 05:48:33;;;;;;;19.20;7.55;;;;;;;;;;4963689;28;20043;-53
2023/07/19 05:50:59;;;;;;;15.55;6.82;;;;;;;;;;4973798;28;20385;-53
2023/07/19 05:53:25;;;;;;;24.52;7.30;;;;;;;;;;4982758;28;20041;-53
2023/07/19 05:55:52;;;;;;;15.98;7.43;;;;;;;;;;4990225;28;20479;-53
2023/07/19 05:58:18;;;;;;;13.32;7.32;;;;;;;;;;4984692;28;20042;-50
2023/07/19 06:00:43;;;;;;;15.90;6.75;;;;;;;;;;4980961;28;20953;-54
2023/07/19 06:03:09;;;;;;;16.25;6.82;;;;;;;;;;4975648;28;20138;-51
2023/07/19 06:05:34;;;;;;;13.50;7.03;;;;;;;;;;4954758;28;20030;-53
2023/07/19 06:08:00;;;;;;;20.42;6.72;;;;;;;;;;4973955;28;20138;-50
2023/07/19 06:10:25;;;;;;;14.45;7.80;;;;;;;;;;4967705;28;20490;-51
2023/07/19 06:12:51;;;;;;;16.45;7.05;;;;;;;;;;4975394;28;20047;-50
2023/07/19 06:15:16;;;;;;;19.08;7.28;;;;;;;;;;4958185;28;20073;-54
2023/07/19 06:17:42;;;;;;;19.90;7.82;;;;;;;;;;4963241;28;20109;-52
2023/07/19 06:20:11;;;;;;;17.20;6.97;;;;;;;;;;4972345;28;20062;-50
2023/07/19 06:22:37;;;;;;;19.88;7.30;;;;;;;;;;4966238;28;20111;-50
2023/07/19 06:25:03;;;;;;;14.63;7.57;;;;;;;;;;4974248;28;20121;-52
2023/07/19 06:27:28;;;;;;;24.60;8.27;;;;;;;;;;4968501;28;20351;-50
2023/07/19 06:29:54;;;;;;;20.52;7.88;;;;;;;;;;4949626;28;20567;-52
2023/07/19 06:32:20;;;;;;;24.85;7.35;;;;;;;;;;4971805;28;20031;-52
2023/07/19 06:34:45;;;;;;;26.65;8.60;;;;;;;;;;4964803;28;20195;-52
2023/07/19 06:37:11;;;;;;;19.60;7.72;;;;;;;;;;4976637;28;20062;-49
2023/07/19 06:39:36;;;;;;;21.23;8.43;;;;;;;;;;4967561;28;20043;-52
2023/07/19 06:42:01;;;;;;;20.85;8.35;;;;;;;;;;4973786;28;20031;-50
2023/07/19 06:44:27;;;;;;;27.95;9.13;;;;;;;;;;4983690;28;20046;-49
2023/07/19 06:46:55;;;;;;;21.65;8.27;;;;;;;;;;4984894;28;20030;-49
2023/07/19 06:49:20;;;;;;;21.92;8.07;;;;;;;;;;4982945;28;20046;-50
2023/07/19 06:51:48;;;;;;;27.73;8.38;;;;;;;;;;4999916;28;20086;-54
2023/07/19 06:54:13;;;;;;;27.20;9.15;;;;;;;;;;4992344;28;20042;-53
2023/07/19 06:56:39;;;;;;;24.08;7.63;;;;;;;;;;4993957;28;20034;-51
2023/07/19 06:59:04;;;;;;;19.55;7.72;;;;;;;;;;4991790;28;20026;-52
2023/07/19 07:01:29;;;;;;;28.48;7.70;;;;;;;;;;4988623;28;20026;-50
2023/07/19 07:03:55;;;;;;;16.42;7.45;;;;;;;;;;4994437;28;20055;-50
2023/07/19 07:06:20;;;;;;;22.95;7.57;;;;;;;;;;4994573;28;20026;-53
2023/07/19 07:08:46;;;;;;;18.98;8.48;;;;;;;;;;4987145;28;20113;-53
2023/07/19 07:11:11;;;;;;;12.63;7.75;;;;;;;;;;5009417;28;20081;-50
2023/07/19 07:13:36;;;;;;;16.88;7.68;;;;;;;;;;4983325;28;20069;-52
2023/07/19 07:16:02;;;;;;;21.90;7.82;;;;;;;;;;4989932;28;20555;-49
2023/07/19 07:18:28;;;;;;;19.45;9.98;;;;;;;;;;5007136;28;20895;-51
2023/07/19 07:20:53;;;;;;;20.00;8.32;;;;;;;;;;4991243;28;20467;-50
2023/07/19 07:23:19;;;;;;;15.70;7.13;;;;;;;;;;4986075;28;20030;-49
2023/07/19 07:25:44;;;;;;;23.17;7.55;;;;;;;;;;4987482;28;20041;-47
2023/07/19 07:28:10;;;;;;;21.70;8.38;;;;;;;;;;4990848;28;20043;-53
2023/07/19 07:30:36;;;;;;;19.58;7.53;;;;;;;;;;4979350;28;20496;-50
2023/07/19 07:33:03;;;;;;;20.58;7.80;;;;;;;;;;4985865;28;20210;-50
2023/07/19 07:35:28;;;;;;;15.35;7.57;;;;;;;;;;4981358;28;20050;-51
2023/07/19 07:37:54;;;;;;;25.00;8.65;;;;;;;;;;4985868;28;20049;-50
2023/07/19 07:40:19;;;;;;;16.85;9.13;;;;;;;;;;4994760;28;21751;-50
2023/07/19 07:42:45;;;;;;;19.60;8.93;;;;;;;;;;4987813;28;20069;-47
2023/07/19 07:45:11;;;;;;;20.83;8.40;;;;;;;;;;4986201;28;20029;-49
2023/07/19 07:47:36;;;;;;;22.95;9.55;;;;;;;;;;4991870;28;20460;-48
2023/07/19 07:50:03;;;;;;;20.15;9.90;;;;;;;;;;4995962;28;20019;-50
2023/07/19 07:52:29;;;;;;;19.98;9.27;;;;;;;;;;4992695;28;20400;-49
2023/07/19 07:54:55;;;;;;;12.60;8.35;;;;;;;;;;4992984;28;20049;-50
2023/07/19 07:57:20;;;;;;;20.88;10.02;;;;;;;;;;4989822;28;20034;-48
2023/07/19 07:59:46;;;;;;;28.88;9.45;;;;;;;;;;4993487;28;20050;-53
2023/07/19 08:02:11;;;;;;;20.55;9.40;;;;;;;;;;4994209;28;20026;-50
2023/07/19 08:04:37;;;;;;;20.35;8.60;;;;;;;;;;4994301;28;20037;-50
2023/07/19 08:07:03;;;;;;;18.40;8.48;;;;;;;;;;4991065;28;20027;-50
2023/07/19 08:09:28;;;;;;;19.58;8.98;;;;;;;;;;4985656;28;20102;-48
2023/07/19 08:11:54;;;;;;;20.00;9.80;;;;;;;;;;4994198;28;20022;-50
2023/07/19 08:14:19;;;;;;;23.23;8.65;;;;;;;;;;4998237;28;20073;-52
2023/07/19 08:16:46;;;;;;;15.40;8.57;;;;;;;;;;4992484;28;20089;-53
2023/07/19 08:19:12;;;;;;;18.00;8.77;;;;;;;;;;4974834;28;20039;-53
2023/07/19 08:21:37;;;;;;;20.17;9.45;;;;;;;;;;4979916;28;20046;-49
2023/07/19 08:24:03;;;;;;;26.50;8.35;;;;;;;;;;4976225;28;20039;-49
2023/07/19 08:26:28;;;;;;;20.90;8.85;;;;;;;;;;4979072;28;20084;-49
2023/07/19 08:28:54;;;;;;;23.65;8.75;;;;;;;;;;4972278;28;20042;-54
2023/07/19 08:31:19;;;;;;;24.05;8.57;;;;;;;;;;4977935;28;20031;-53
2023/07/19 08:33:45;;;;;;;17.45;8.73;;;;;;;;;;4987020;28;20053;-53
2023/07/19 08:36:10;;;;;;;16.35;8.50;;;;;;;;;;4994968;28;20416;-50
2023/07/19 08:38:36;;;;;;;18.85;8.07;;;;;;;;;;4996722;28;20042;-49
2023/07/19 08:41:03;;;;;;;25.98;9.95;;;;;;;;;;4998468;28;20025;-50
2023/07/19 08:43:31;;;;;;;17.33;7.82;;;;;;;;;;4991163;28;20098;-50
2023/07/19 08:45:57;;;;;;;18.17;7.75;;;;;;;;;;4996814;28;20052;-51
2023/07/19 08:48:23;;;;;;;20.85;7.85;;;;;;;;;;4991851;28;20042;-49
2023/07/19 08:51:01;;;;;;;15.93;8.15;;;;;;;;;;4997230;28;20030;-52
2023/07/19 08:53:26;;;;;;;20.00;8.88;;;;;;;;;;4995536;28;20042;-49
2023/07/19 08:55:53;;;;;;;20.15;7.70;;;;;;;;;;4994330;28;20031;-52
2023/07/19 08:58:19;;;;;;;20.60;8.40;;;;;;;;;;4988887;28;20603;-50
2023/07/19 09:00:48;;;;;;;19.90;8.25;;;;;;;;;;4992261;28;20022;-46
2023/07/19 09:03:15;;;;;;;20.30;8.55;;;;;;;;;;4977061;28;20047;-52
2023/07/19 09:05:42;;;;;;;22.67;8.77;;;;;;;;;;4996032;28;20088;-49
2023/07/19 09:08:10;;;;;;;19.33;7.85;;;;;;;;;;4995946;28;20092;-47
2023/07/19 09:10:36;;;;;;;20.25;8.23;;;;;;;;;;4993379;28;20044;-52
2023/07/19 09:13:05;;;;;;;21.13;8.27;;;;;;;;;;4995189;28;20575;-50
2023/07/19 09:15:35;;;;;;;19.13;8.27;;;;;;;;;;4993991;28;20026;-48
2023/07/19 09:18:04;;;;;;;21.58;7.55;;;;;;;;;;4993019;28;20045;-50
2023/07/19 09:20:30;;;;;;;30.08;7.95;;;;;;;;;;4996892;28;20022;-50
2023/07/19 09:22:58;;;;;;;12.20;7.03;;;;;;;;;;4993105;28;20107;-47
2023/07/19 09:25:23;;;;;;;18.35;7.43;;;;;;;;;;4991304;28;20037;-52
2023/07/19 09:27:48;;;;;;;14.07;7.63;;;;;;;;;;4996460;28;20038;-47
2023/07/19 09:30:14;;;;;;;20.83;7.35;;;;;;;;;;4992599;28;20034;-48
2023/07/19 09:32:40;;;;;;;16.35;7.13;;;;;;;;;;4996353;28;20085;-51
2023/07/19 09:35:07;;;;;;;16.20;7.00;;;;;;;;;;4988970;28;20070;-45
2023/07/19 09:37:34;;;;;;;14.13;7.13;;;;;;;;;;4994894;28;21080;-48
2023/07/19 09:40:01;;;;;;;16.48;6.80;;;;;;;;;;4997657;28;20023;-47
2023/07/19 09:42:29;;;;;;;14.48;6.40;;;;;;;;;;4995780;28;20052;-49
2023/07/19 09:44:55;;;;;;;15.95;6.53;;;;;;;;;;4987701;28;20026;-51
2023/07/19 09:47:24;;;;;;;12.40;6.63;;;;;;;;;;4997657;28;20088;-49
2023/07/19 09:49:49;;;;;;;20.58;6.85;;;;;;;;;;4994171;28;20101;-48
2023/07/19 09:52:18;;;;;;;13.15;6.60;;;;;;;;;;4971712;28;20031;-48
2023/07/19 09:54:44;;;;;;;14.55;6.90;;;;;;;;;;4983200;28;20070;-47
2023/07/19 09:57:10;;;;;;;18.50;7.47;;;;;;;;;;4991421;28;20113;-51
2023/07/19 09:59:40;;;;;;;12.45;6.57;;;;;;;;;;4989641;28;20046;-50
2023/07/19 10:02:07;;;;;;;16.45;6.88;;;;;;;;;;4986071;28;20041;-48
2023/07/19 10:04:40;;;;;;;15.13;6.93;;;;;;;;;;4988378;28;20085;-49
2023/07/19 10:07:08;;;;;;;22.75;7.20;;;;;;;;;;4995372;28;20054;-49
2023/07/19 10:09:36;;;;;;;16.80;7.22;;;;;;;;;;4995530;28;20034;-49
2023/07/19 10:12:23;;;;;;;16.25;6.10;;;;;;;;;;4989445;28;20089;-48
2023/07/19 10:14:58;;;;;;;16.75;6.90;;;;;;;;;;4981555;28;20077;-50
2023/07/19 10:17:24;;;;;;;15.30;6.30;;;;;;;;;;4993136;28;20026;-49
2023/07/19 10:20:09;;;;;;;12.25;6.38;;;;;;;;;;4991748;28;20034;-48
2023/07/19 10:22:57;;;;;;;16.77;5.93;;;;;;;;;;4995957;28;20042;-48
2023/07/19 10:25:51;;;;;;;14.32;6.30;;;;;;;;;;4990093;28;20026;-49
2023/07/19 10:28:29;;;;;;;13.27;6.22;;;;;;;;;;4979965;28;20512;-51
2023/07/19 10:31:07;;;;;;;14.23;6.68;;;;;;;;;;4990611;28;20026;-51
2023/07/19 10:33:34;;;;;;;16.95;6.40;;;;;;;;;;4987082;28;20461;-51
2023/07/19 10:36:07;;;;;;;24.23;6.80;;;;;;;;;;4992350;28;20050;-51
2023/07/19 10:38:33;;;;;;;20.17;6.63;;;;;;;;;;4972631;28;20047;-51
2023/07/19 10:41:04;;;;;;;14.82;6.72;;;;;;;;;;4974720;28;20023;-47
2023/07/19 10:43:31;;;;;;;15.88;6.95;;;;;;;;;;4962219;28;20061;-48
2023/07/19 10:45:59;;;;;;;22.75;6.32;;;;;;;;;;4957751;28;20023;-52
2023/07/19 10:48:30;;;;;;;19.30;7.00;;;;;;;;;;4984638;28;20073;-49
2023/07/19 10:50:57;;;;;;;13.50;6.13;;;;;;;;;;4996377;28;20065;-50
2023/07/19 10:53:23;;;;;;;13.45;6.43;;;;;;;;;;4990818;28;20040;-50
2023/07/19 10:55:55;;;;;;;15.55;5.90;;;;;;;;;;4995097;28;20034;-50
2023/07/19 10:58:21;;;;;;;22.50;6.90;;;;;;;;;;4994556;28;20547;-47
2023/07/19 11:00:48;;;;;;;16.10;6.15;;;;;;;;;;4993911;28;20082;-47
2023/07/19 11:03:14;;;;;;;22.10;6.35;;;;;;;;;;4989732;28;20089;-47
2023/07/19 11:05:51;;;;;;;12.25;5.78;;;;;;;;;;4994415;28;20026;-46
2023/07/19 11:08:27;;;;;;;16.52;5.95;;;;;;;;;;4986785;28;20049;-48
2023/07/19 11:10:54;;;;;;;14.95;6.20;;;;;;;;;;4988970;28;20030;-48
2023/07/19 11:13:22;;;;;;;13.93;5.75;;;;;;;;;;4995124;28;20040;-50
2023/07/19 11:15:49;;;;;;;20.92;6.47;;;;;;;;;;4990378;28;21329;-51
2023/07/19 11:18:34;;;;;;;13.10;6.13;;;;;;;;;;4992927;28;20500;-49
2023/07/19 11:21:00;;;;;;;10.90;6.45;;;;;;;;;;4993760;28;20038;-50
2023/07/19 11:23:27;;;;;;;12.07;6.45;;;;;;;;;;4994942;28;20124;-47
2023/07/19 11:26:07;;;;;;;15.60;7.32;;;;;;;;;;4992259;28;20395;-51
2023/07/19 11:28:50;;;;;;;11.10;6.28;;;;;;;;;;4992281;28;20141;-50
2023/07/19 11:31:31;;;;;;;16.50;6.57;;;;;;;;;;4991031;28;20026;-47
2023/07/19 11:34:01;;;;;;;6.38;5.13;;;;;;;;;;4980107;28;20034;-50
2023/07/19 11:36:26;;;;;;;11.50;5.15;;;;;;;;;;4981490;28;20042;-49
2023/07/19 11:38:52;;;;;;;20.17;6.70;;;;;;;;;;4993948;28;20093;-48
2023/07/19 11:41:18;;;;;;;11.57;4.97;;;;;;;;;;4992931;28;20033;-50
2023/07/19 11:43:45;;;;;;;11.90;5.10;;;;;;;;;;4989448;28;20396;-51
2023/07/19 11:46:13;;;;;;;12.50;5.32;;;;;;;;;;4991720;28;20468;-51
2023/07/19 11:48:39;;;;;;;8.73;4.80;;;;;;;;;;4996577;28;20042;-53
2023/07/19 11:51:05;;;;;;;10.95;4.70;;;;;;;;;;4993958;28;20080;-50
2023/07/19 11:53:30;;;;;;;12.30;4.72;;;;;;;;;;4992339;28;20096;-49
2023/07/19 11:55:56;;;;;;;9.70;4.65;;;;;;;;;;4997649;28;20550;-52
2023/07/19 11:58:21;;;;;;;11.32;4.85;;;;;;;;;;4986586;28;20114;-48
2023/07/19 12:00:46;;;;;;;11.02;5.55;;;;;;;;;;4993685;28;20030;-50
2023/07/19 12:03:14;;;;;;;12.85;4.88;;;;;;;;;;4980292;28;20510;-50
2023/07/19 12:05:40;;;;;;;15.13;4.97;;;;;;;;;;4997489;28;20084;-47
2023/07/19 12:08:06;;;;;;;12.35;5.10;;;;;;;;;;4998309;28;20042;-49
2023/07/19 12:10:32;;;;;;;6.90;4.57;;;;;;;;;;4999709;28;20050;-48
2023/07/19 12:12:57;;;;;;;17.65;4.85;;;;;;;;;;4981602;28;20041;-51
2023/07/19 12:15:23;;;;;;;12.43;5.03;;;;;;;;;;4998412;28;20053;-49
2023/07/19 12:17:49;;;;;;;13.05;5.35;;;;;;;;;;4993994;28;20034;-52
2023/07/19 12:20:15;;;;;;;14.98;4.60;;;;;;;;;;4995588;28;20057;-51
2023/07/19 12:22:43;;;;;;;11.15;4.55;;;;;;;;;;4996679;28;20046;-48
2023/07/19 12:25:09;;;;;;;20.48;4.82;;;;;;;;;;4999528;28;20724;-49
2023/07/19 12:27:35;;;;;;;10.70;4.82;;;;;;;;;;4981174;28;20034;-52
2023/07/19 12:30:01;;;;;;;15.55;5.03;;;;;;;;;;4977658;28;20022;-45
2023/07/19 12:32:27;;;;;;;8.25;4.82;;;;;;;;;;4989099;28;20030;-49
2023/07/19 12:34:54;;;;;;;13.90;4.97;;;;;;;;;;4991752;28;20059;-49
2023/07/19 12:37:19;;;;;;;12.45;4.90;;;;;;;;;;4990447;28;20034;-50
2023/07/19 12:39:45;;;;;;;11.48;5.22;;;;;;;;;;4994076;28;20034;-52
2023/07/19 12:42:11;;;;;;;10.95;4.65;;;;;;;;;;4994436;28;20484;-50
2023/07/19 12:44:37;;;;;;;14.88;5.22;;;;;;;;;;4991892;28;20038;-50
2023/07/19 12:47:03;;;;;;;12.93;5.10;;;;;;;;;;4979839;28;20035;-48
2023/07/19 12:49:29;;;;;;;11.40;4.97;;;;;;;;;;4994711;28;20034;-48
2023/07/19 12:51:57;;;;;;;8.32;4.60;;;;;;;;;;4995963;28;20094;-52
2023/07/19 12:54:22;;;;;;;12.52;5.47;;;;;;;;;;4997025;28;20489;-51
2023/07/19 12:56:48;;;;;;;11.45;5.15;;;;;;;;;;4992056;28;20026;-46
2023/07/19 12:59:13;;;;;;;13.90;4.78;;;;;;;;;;4994100;28;20089;-49
2023/07/19 13:01:39;;;;;;;15.85;4.93;;;;;;;;;;4992429;28;20026;-51
2023/07/19 13:04:06;;;;;;;11.93;5.63;;;;;;;;;;4996116;28;20396;-48
2023/07/19 13:06:33;;;;;;;10.48;5.18;;;;;;;;;;4990773;28;20031;-49
2023/07/19 13:08:59;;;;;;;18.00;5.68;;;;;;;;;;4992307;28;20050;-48
2023/07/19 13:11:24;;;;;;;12.15;5.15;;;;;;;;;;4983457;28;20045;-51
2023/07/19 13:13:50;;;;;;;14.25;5.50;;;;;;;;;;4994826;28;20038;-52
2023/07/19 13:16:17;;;;;;;16.73;5.97;;;;;;;;;;4990729;28;20038;-53
2023/07/19 13:18:44;;;;;;;13.43;4.70;;;;;;;;;;4993208;28;20049;-48
2023/07/19 13:21:10;;;;;;;12.88;5.53;;;;;;;;;;4987666;28;20485;-50
2023/07/19 13:23:35;;;;;;;14.75;4.85;;;;;;;;;;4995454;28;20146;-49
2023/07/19 13:26:01;;;;;;;16.80;5.50;;;;;;;;;;4989475;28;20550;-52
2023/07/19 13:28:26;;;;;;;13.52;5.85;;;;;;;;;;4994484;28;20054;-46
2023/07/19 13:30:52;;;;;;;10.05;5.43;;;;;;;;;;4990889;28;20377;-49
2023/07/19 13:33:17;;;;;;;18.27;6.07;;;;;;;;;;4994600;28;20042;-50
2023/07/19 13:35:43;;;;;;;11.60;5.28;;;;;;;;;;4987123;28;20476;-50
2023/07/19 13:38:08;;;;;;;15.57;5.85;;;;;;;;;;4996721;28;20042;-46
2023/07/19 13:40:36;;;;;;;12.82;5.35;;;;;;;;;;4993174;28;20752;-49
2023/07/19 13:43:02;;;;;;;12.30;5.47;;;;;;;;;;4994633;28;20034;-48
2023/07/19 13:45:28;;;;;;;10.05;5.13;;;;;;;;;;4996863;28;20033;-48
2023/07/19 13:47:53;;;;;;;22.27;5.65;;;;;;;;;;4997177;28;20588;-50
2023/07/19 13:50:19;;;;;;;10.68;5.60;;;;;;;;;;4997537;28;20018;-47
2023/07/19 13:52:44;;;;;;;11.82;5.68;;;;;;;;;;4977396;28;20035;-52
2023/07/19 13:55:10;;;;;;;16.25;5.28;;;;;;;;;;4988340;28;20038;-51
2023/07/19 13:57:36;;;;;;;17.48;5.47;;;;;;;;;;4996346;28;20038;-48
2023/07/19 14:00:01;;;;;;;17.85;6.57;;;;;;;;;;4994896;28;20026;-48
2023/07/19 14:02:29;;;;;;;12.80;6.03;;;;;;;;;;4995183;28;20034;-46
2023/07/19 14:04:55;;;;;;;13.32;6.25;;;;;;;;;;4992595;28;20039;-50
2023/07/19 14:07:21;;;;;;;14.43;5.30;;;;;;;;;;4994796;28;20064;-49
2023/07/19 14:09:47;;;;;;;15.50;5.75;;;;;;;;;;4993366;28;20018;-48
2023/07/19 14:12:13;;;;;;;11.85;5.88;;;;;;;;;;4992214;28;20030;-45
2023/07/19 14:14:39;;;;;;;11.52;5.53;;;;;;;;;;4986761;28;20132;-49
2023/07/19 14:17:05;;;;;;;14.18;5.63;;;;;;;;;;4993791;28;20022;-47
2023/07/19 14:19:30;;;;;;;13.38;5.70;;;;;;;;;;4991099;28;20035;-45
2023/07/19 14:21:56;;;;;;;14.13;5.88;;;;;;;;;;4993649;28;20753;-46
2023/07/19 14:24:22;;;;;;;17.70;6.10;;;;;;;;;;4994042;28;20046;-50